sensor_id;sensor_type;location;lat;lon;timestamp;pressure;altitude;pressure_sealevel;temperature;humidity
31681;BME280;18281;51.364;9.566;2023-07-02T00:00:53;99078.81;;;14.32;100.00
31681;BME280;18281;51.364;9.566;2023-07-02T00:03:20;99069.28;;;14.41;100.00
31681;BME280;18281;51.364;9.566;2023-07-02T00:05:47;99065.38;;;14.45;100.00
31681;BME280;18281;51.364;9.566;2023-07-02T00:08:15;99070.25;;;14.50;100.00
31681;BME280;18281;51.364;9.566;2023-07-02T00:10:40;99066.22;;;14.55;100.00
31681;BME280;18281;51.364;9.566;2023-07-02T00:13:06;99067.00;;;14.36;100.00
31681;BME280;18281;51.364;9.566;2023-07-02T00:15:31;99063.75;;;14.23;100.00
31681;BME280;18281;51.364;9.566;2023-07-02T00:17:57;99063.06;;;14.21;100.00
31681;BME280;18281;51.364;9.566;2023-07-02T00:20:22;99063.69;;;14.34;100.00
31681;BME280;18281;51.364;9.566;2023-07-02T00:22:48;99061.16;;;14.33;100.00
31681;BME280;18281;51.364;9.566;2023-07-02T00:25:14;99068.81;;;14.36;100.00
31681;BME280;18281;51.364;9.566;2023-07-02T00:27:39;99063.91;;;14.21;100.00
31681;BME280;18281;51.364;9.566;2023-07-02T00:30:06;99071.69;;;14.23;100.00
31681;BME280;18281;51.364;9.566;2023-07-02T00:32:31;99070.06;;;14.32;100.00
31681;BME280;18281;51.364;9.566;2023-07-02T00:34:57;99073.66;;;14.31;100.00
31681;BME280;18281;51.364;9.566;2023-07-02T00:37:22;99075.06;;;14.35;100.00
31681;BME280;18281;51.364;9.566;2023-07-02T00:39:47;99071.03;;;14.31;100.00
31681;BME280;18281;51.364;9.566;2023-07-02T00:42:14;99070.72;;;14.24;100.00
31681;BME280;18281;51.364;9.566;2023-07-02T00:44:39;99075.56;;;13.98;100.00
31681;BME280;18281;51.364;9.566;2023-07-02T00:47:09;99082.00;;;13.84;100.00
31681;BME280;18281;51.364;9.566;2023-07-02T00:49:35;99076.59;;;14.06;100.00
31681;BME280;18281;51.364;9.566;2023-07-02T00:52:01;99075.56;;;14.19;100.00
31681;BME280;18281;51.364;9.566;2023-07-02T00:54:30;99075.50;;;14.09;100.00
31681;BME280;18281;51.364;9.566;2023-07-02T00:56:56;99078.28;;;14.07;100.00
31681;BME280;18281;51.364;9.566;2023-07-02T00:59:22;99080.66;;;13.89;100.00
31681;BME280;18281;51.364;9.566;2023-07-02T01:01:47;99071.06;;;14.09;100.00
31681;BME280;18281;51.364;9.566;2023-07-02T01:04:19;99072.78;;;14.20;100.00
31681;BME280;18281;51.364;9.566;2023-07-02T01:06:44;99079.72;;;14.21;100.00
31681;BME280;18281;51.364;9.566;2023-07-02T01:09:10;99083.41;;;13.88;100.00
31681;BME280;18281;51.364;9.566;2023-07-02T01:14:05;99083.94;;;14.03;100.00
31681;BME280;18281;51.364;9.566;2023-07-02T01:16:31;99086.75;;;14.11;100.00
31681;BME280;18281;51.364;9.566;2023-07-02T01:18:59;99080.53;;;14.12;100.00
31681;BME280;18281;51.364;9.566;2023-07-02T01:21:30;99087.22;;;13.95;100.00
31681;BME280;18281;51.364;9.566;2023-07-02T01:23:55;99078.16;;;14.09;100.00
31681;BME280;18281;51.364;9.566;2023-07-02T01:26:21;99086.06;;;14.09;100.00
31681;BME280;18281;51.364;9.566;2023-07-02T01:28:46;99083.66;;;14.06;100.00
31681;BME280;18281;51.364;9.566;2023-07-02T01:31:11;99082.44;;;14.10;100.00
31681;BME280;18281;51.364;9.566;2023-07-02T01:33:37;99076.19;;;14.11;100.00
31681;BME280;18281;51.364;9.566;2023-07-02T01:36:02;99078.84;;;14.11;100.00
31681;BME280;18281;51.364;9.566;2023-07-02T01:38:28;99084.75;;;14.03;100.00
31681;BME280;18281;51.364;9.566;2023-07-02T01:40:53;99077.75;;;13.92;100.00
31681;BME280;18281;51.364;9.566;2023-07-02T01:43:19;99086.31;;;13.85;100.00
31681;BME280;18281;51.364;9.566;2023-07-02T01:45:45;99083.53;;;13.86;100.00
31681;BME280;18281;51.364;9.566;2023-07-02T01:48:10;99093.91;;;13.78;100.00
31681;BME280;18281;51.364;9.566;2023-07-02T01:50:35;99087.66;;;13.79;100.00
31681;BME280;18281;51.364;9.566;2023-07-02T01:53:01;99090.59;;;13.86;100.00
31681;BME280;18281;51.364;9.566;2023-07-02T01:55:26;99085.56;;;13.94;100.00
31681;BME280;18281;51.364;9.566;2023-07-02T01:57:52;99090.84;;;13.94;100.00
31681;BME280;18281;51.364;9.566;2023-07-02T02:00:17;99085.28;;;13.76;100.00
31681;BME280;18281;51.364;9.566;2023-07-02T02:02:43;99087.28;;;13.84;100.00
31681;BME280;18281;51.364;9.566;2023-07-02T02:05:08;99096.50;;;13.89;100.00
31681;BME280;18281;51.364;9.566;2023-07-02T02:07:37;99100.09;;;13.88;100.00
31681;BME280;18281;51.364;9.566;2023-07-02T02:10:03;99086.41;;;13.95;100.00
31681;BME280;18281;51.364;9.566;2023-07-02T02:12:29;99087.34;;;13.93;100.00
31681;BME280;18281;51.364;9.566;2023-07-02T02:14:55;99092.03;;;13.90;100.00
31681;BME280;18281;51.364;9.566;2023-07-02T02:17:20;99087.00;;;13.87;100.00
31681;BME280;18281;51.364;9.566;2023-07-02T02:19:46;99090.25;;;13.90;100.00
31681;BME280;18281;51.364;9.566;2023-07-02T02:22:11;99093.50;;;13.94;100.00
31681;BME280;18281;51.364;9.566;2023-07-02T02:24:36;99093.72;;;13.91;100.00
31681;BME280;18281;51.364;9.566;2023-07-02T02:27:02;99091.47;;;13.86;100.00
31681;BME280;18281;51.364;9.566;2023-07-02T02:29:27;99096.13;;;13.62;100.00
31681;BME280;18281;51.364;9.566;2023-07-02T02:31:52;99096.19;;;13.50;100.00
31681;BME280;18281;51.364;9.566;2023-07-02T02:34:18;99102.81;;;13.66;100.00
31681;BME280;18281;51.364;9.566;2023-07-02T02:36:43;99094.59;;;13.80;100.00
31681;BME280;18281;51.364;9.566;2023-07-02T02:39:09;99095.31;;;13.82;100.00
31681;BME280;18281;51.364;9.566;2023-07-02T02:41:34;99093.66;;;13.81;100.00
31681;BME280;18281;51.364;9.566;2023-07-02T02:43:59;99096.09;;;13.73;100.00
31681;BME280;18281;51.364;9.566;2023-07-02T02:46:25;99101.41;;;13.62;100.00
31681;BME280;18281;51.364;9.566;2023-07-02T02:48:50;99098.41;;;13.66;100.00
31681;BME280;18281;51.364;9.566;2023-07-02T02:51:16;99092.88;;;13.69;100.00
31681;BME280;18281;51.364;9.566;2023-07-02T02:53:42;99089.28;;;13.70;100.00
31681;BME280;18281;51.364;9.566;2023-07-02T02:56:07;99092.22;;;13.77;100.00
31681;BME280;18281;51.364;9.566;2023-07-02T02:58:32;99094.28;;;13.73;100.00
31681;BME280;18281;51.364;9.566;2023-07-02T03:00:58;99096.91;;;13.73;100.00
31681;BME280;18281;51.364;9.566;2023-07-02T03:03:23;99088.31;;;13.71;100.00
31681;BME280;18281;51.364;9.566;2023-07-02T03:05:50;99093.59;;;13.71;100.00
31681;BME280;18281;51.364;9.566;2023-07-02T03:08:15;99098.53;;;13.65;100.00
31681;BME280;18281;51.364;9.566;2023-07-02T03:10:41;99093.91;;;13.57;100.00
31681;BME280;18281;51.364;9.566;2023-07-02T03:13:07;99105.81;;;13.40;100.00
31681;BME280;18281;51.364;9.566;2023-07-02T03:15:32;99105.75;;;13.30;100.00
31681;BME280;18281;51.364;9.566;2023-07-02T03:17:57;99105.88;;;13.29;100.00
31681;BME280;18281;51.364;9.566;2023-07-02T03:20:23;99107.88;;;13.36;100.00
31681;BME280;18281;51.364;9.566;2023-07-02T03:22:48;99107.25;;;13.44;100.00
31681;BME280;18281;51.364;9.566;2023-07-02T03:25:14;99108.66;;;13.48;100.00
31681;BME280;18281;51.364;9.566;2023-07-02T03:27:39;99106.63;;;13.52;100.00
31681;BME280;18281;51.364;9.566;2023-07-02T03:30:05;99103.59;;;13.56;100.00
31681;BME280;18281;51.364;9.566;2023-07-02T03:32:31;99101.28;;;13.42;100.00
31681;BME280;18281;51.364;9.566;2023-07-02T03:34:56;99094.81;;;13.35;100.00
31681;BME280;18281;51.364;9.566;2023-07-02T03:37:22;99091.09;;;13.37;100.00
31681;BME280;18281;51.364;9.566;2023-07-02T03:39:47;99079.31;;;13.41;100.00
31681;BME280;18281;51.364;9.566;2023-07-02T03:42:12;99069.19;;;13.37;100.00
31681;BME280;18281;51.364;9.566;2023-07-02T03:44:38;99086.06;;;13.34;100.00
31681;BME280;18281;51.364;9.566;2023-07-02T03:47:03;99093.22;;;13.11;100.00
31681;BME280;18281;51.364;9.566;2023-07-02T03:49:28;99085.81;;;13.05;100.00
31681;BME280;18281;51.364;9.566;2023-07-02T03:51:54;99096.84;;;12.99;100.00
31681;BME280;18281;51.364;9.566;2023-07-02T03:54:19;99088.19;;;13.19;100.00
31681;BME280;18281;51.364;9.566;2023-07-02T03:56:45;99085.19;;;13.13;100.00
31681;BME280;18281;51.364;9.566;2023-07-02T03:59:10;99095.09;;;13.20;100.00
31681;BME280;18281;51.364;9.566;2023-07-02T04:01:35;99098.13;;;13.16;100.00
31681;BME280;18281;51.364;9.566;2023-07-02T04:04:01;99093.34;;;13.09;100.00
31681;BME280;18281;51.364;9.566;2023-07-02T04:06:26;99104.03;;;12.97;100.00
31681;BME280;18281;51.364;9.566;2023-07-02T04:08:52;99106.41;;;13.11;100.00
31681;BME280;18281;51.364;9.566;2023-07-02T04:11:17;99115.63;;;12.83;100.00
31681;BME280;18281;51.364;9.566;2023-07-02T04:13:42;99106.91;;;13.05;100.00
31681;BME280;18281;51.364;9.566;2023-07-02T04:16:08;99113.19;;;13.14;100.00
31681;BME280;18281;51.364;9.566;2023-07-02T04:18:33;99119.59;;;13.11;100.00
31681;BME280;18281;51.364;9.566;2023-07-02T04:20:59;99118.03;;;12.86;100.00
31681;BME280;18281;51.364;9.566;2023-07-02T04:23:25;99120.81;;;12.84;100.00
31681;BME280;18281;51.364;9.566;2023-07-02T04:25:50;99117.44;;;13.05;100.00
31681;BME280;18281;51.364;9.566;2023-07-02T04:28:16;99126.97;;;13.17;100.00
31681;BME280;18281;51.364;9.566;2023-07-02T04:30:42;99125.81;;;12.99;100.00
31681;BME280;18281;51.364;9.566;2023-07-02T04:33:08;99136.97;;;13.02;100.00
31681;BME280;18281;51.364;9.566;2023-07-02T04:35:34;99142.19;;;13.14;100.00
31681;BME280;18281;51.364;9.566;2023-07-02T04:38:00;99139.34;;;13.05;100.00
31681;BME280;18281;51.364;9.566;2023-07-02T04:40:25;99153.81;;;13.22;100.00
31681;BME280;18281;51.364;9.566;2023-07-02T04:42:51;99154.88;;;13.31;100.00
31681;BME280;18281;51.364;9.566;2023-07-02T04:45:23;99160.16;;;13.31;100.00
31681;BME280;18281;51.364;9.566;2023-07-02T04:47:49;99167.94;;;13.33;100.00
31681;BME280;18281;51.364;9.566;2023-07-02T04:50:16;99167.41;;;13.39;100.00
31681;BME280;18281;51.364;9.566;2023-07-02T04:52:42;99170.19;;;13.37;100.00
31681;BME280;18281;51.364;9.566;2023-07-02T04:55:08;99177.25;;;13.37;100.00
31681;BME280;18281;51.364;9.566;2023-07-02T04:57:33;99181.31;;;13.41;100.00
31681;BME280;18281;51.364;9.566;2023-07-02T04:59:58;99183.22;;;13.39;100.00
31681;BME280;18281;51.364;9.566;2023-07-02T05:02:24;99180.38;;;13.42;100.00
31681;BME280;18281;51.364;9.566;2023-07-02T05:04:49;99182.16;;;13.41;100.00
31681;BME280;18281;51.364;9.566;2023-07-02T05:07:16;99178.56;;;13.42;100.00
31681;BME280;18281;51.364;9.566;2023-07-02T05:09:41;99177.47;;;13.45;100.00
31681;BME280;18281;51.364;9.566;2023-07-02T05:12:07;99180.47;;;13.40;100.00
31681;BME280;18281;51.364;9.566;2023-07-02T05:14:32;99177.81;;;13.40;100.00
31681;BME280;18281;51.364;9.566;2023-07-02T05:16:58;99168.84;;;13.43;100.00
31681;BME280;18281;51.364;9.566;2023-07-02T05:19:23;99171.25;;;13.46;100.00
31681;BME280;18281;51.364;9.566;2023-07-02T05:21:48;99182.75;;;13.45;100.00
31681;BME280;18281;51.364;9.566;2023-07-02T05:24:14;99177.47;;;13.45;100.00
31681;BME280;18281;51.364;9.566;2023-07-02T05:26:39;99180.94;;;13.46;100.00
31681;BME280;18281;51.364;9.566;2023-07-02T05:29:04;99184.16;;;13.49;100.00
31681;BME280;18281;51.364;9.566;2023-07-02T05:31:30;99177.22;;;13.48;100.00
31681;BME280;18281;51.364;9.566;2023-07-02T05:33:56;99174.91;;;13.55;100.00
31681;BME280;18281;51.364;9.566;2023-07-02T05:36:21;99171.81;;;13.50;100.00
31681;BME280;18281;51.364;9.566;2023-07-02T05:38:47;99170.38;;;13.57;100.00
31681;BME280;18281;51.364;9.566;2023-07-02T05:41:22;99173.69;;;13.59;100.00
31681;BME280;18281;51.364;9.566;2023-07-02T05:43:47;99170.69;;;13.64;100.00
31681;BME280;18281;51.364;9.566;2023-07-02T05:46:14;99175.38;;;13.60;100.00
31681;BME280;18281;51.364;9.566;2023-07-02T05:48:40;99174.03;;;13.66;100.00
31681;BME280;18281;51.364;9.566;2023-07-02T05:51:05;99178.47;;;13.65;100.00
31681;BME280;18281;51.364;9.566;2023-07-02T05:53:30;99177.28;;;13.69;100.00
31681;BME280;18281;51.364;9.566;2023-07-02T05:55:56;99178.09;;;13.70;100.00
31681;BME280;18281;51.364;9.566;2023-07-02T05:58:21;99174.75;;;14.00;100.00
31681;BME280;18281;51.364;9.566;2023-07-02T06:00:47;99184.91;;;14.26;100.00
31681;BME280;18281;51.364;9.566;2023-07-02T06:03:15;99185.97;;;14.35;100.00
31681;BME280;18281;51.364;9.566;2023-07-02T06:05:49;99186.63;;;14.58;100.00
31681;BME280;18281;51.364;9.566;2023-07-02T06:08:17;99196.81;;;14.63;100.00
31681;BME280;18281;51.364;9.566;2023-07-02T06:10:46;99194.19;;;14.63;100.00
31681;BME280;18281;51.364;9.566;2023-07-02T06:13:12;99190.66;;;14.83;100.00
31681;BME280;18281;51.364;9.566;2023-07-02T06:15:37;99195.47;;;14.78;100.00
31681;BME280;18281;51.364;9.566;2023-07-02T06:18:02;99192.50;;;14.92;100.00
31681;BME280;18281;51.364;9.566;2023-07-02T06:20:28;99190.47;;;15.06;100.00
31681;BME280;18281;51.364;9.566;2023-07-02T06:22:53;99195.91;;;15.04;100.00
31681;BME280;18281;51.364;9.566;2023-07-02T06:25:19;99188.25;;;15.11;100.00
31681;BME280;18281;51.364;9.566;2023-07-02T06:27:44;99185.06;;;15.17;100.00
31681;BME280;18281;51.364;9.566;2023-07-02T06:30:10;99192.16;;;15.07;100.00
31681;BME280;18281;51.364;9.566;2023-07-02T06:32:35;99196.88;;;15.03;100.00
31681;BME280;18281;51.364;9.566;2023-07-02T06:35:00;99199.38;;;15.05;100.00
31681;BME280;18281;51.364;9.566;2023-07-02T06:37:26;99200.63;;;15.10;100.00
31681;BME280;18281;51.364;9.566;2023-07-02T06:39:51;99202.44;;;15.10;100.00
31681;BME280;18281;51.364;9.566;2023-07-02T06:42:17;99208.31;;;15.14;100.00
31681;BME280;18281;51.364;9.566;2023-07-02T06:44:42;99212.00;;;15.42;100.00
31681;BME280;18281;51.364;9.566;2023-07-02T06:47:07;99204.59;;;15.36;100.00
31681;BME280;18281;51.364;9.566;2023-07-02T06:49:33;99205.31;;;15.38;100.00
31681;BME280;18281;51.364;9.566;2023-07-02T06:51:58;99219.63;;;15.25;100.00
31681;BME280;18281;51.364;9.566;2023-07-02T06:54:26;99209.44;;;15.31;100.00
31681;BME280;18281;51.364;9.566;2023-07-02T06:56:51;99216.31;;;15.43;100.00
31681;BME280;18281;51.364;9.566;2023-07-02T06:59:21;99209.88;;;15.36;100.00
31681;BME280;18281;51.364;9.566;2023-07-02T07:01:46;99212.81;;;15.33;100.00
31681;BME280;18281;51.364;9.566;2023-07-02T07:04:11;99217.56;;;15.39;100.00
31681;BME280;18281;51.364;9.566;2023-07-02T07:06:37;99219.47;;;15.27;100.00
31681;BME280;18281;51.364;9.566;2023-07-02T07:09:03;99218.75;;;15.15;100.00
31681;BME280;18281;51.364;9.566;2023-07-02T07:11:29;99228.34;;;15.16;100.00
31681;BME280;18281;51.364;9.566;2023-07-02T07:13:54;99230.31;;;14.83;100.00
31681;BME280;18281;51.364;9.566;2023-07-02T07:16:19;99242.72;;;14.92;100.00
31681;BME280;18281;51.364;9.566;2023-07-02T07:18:45;99243.53;;;14.83;100.00
31681;BME280;18281;51.364;9.566;2023-07-02T07:21:10;99250.34;;;14.65;100.00
31681;BME280;18281;51.364;9.566;2023-07-02T07:23:35;99252.28;;;14.63;100.00
31681;BME280;18281;51.364;9.566;2023-07-02T07:26:01;99251.09;;;14.98;100.00
31681;BME280;18281;51.364;9.566;2023-07-02T07:28:26;99249.81;;;15.23;100.00
31681;BME280;18281;51.364;9.566;2023-07-02T07:30:51;99254.16;;;15.34;100.00
31681;BME280;18281;51.364;9.566;2023-07-02T07:33:17;99255.69;;;15.36;100.00
31681;BME280;18281;51.364;9.566;2023-07-02T07:35:42;99257.34;;;15.37;100.00
31681;BME280;18281;51.364;9.566;2023-07-02T07:38:07;99254.88;;;15.46;100.00
31681;BME280;18281;51.364;9.566;2023-07-02T07:40:33;99264.22;;;15.50;100.00
31681;BME280;18281;51.364;9.566;2023-07-02T07:42:58;99258.78;;;15.51;100.00
31681;BME280;18281;51.364;9.566;2023-07-02T07:45:24;99252.41;;;15.54;100.00
31681;BME280;18281;51.364;9.566;2023-07-02T07:47:49;99262.91;;;15.34;100.00
31681;BME280;18281;51.364;9.566;2023-07-02T07:50:14;99256.81;;;15.43;100.00
31681;BME280;18281;51.364;9.566;2023-07-02T07:52:42;99267.03;;;15.58;100.00
31681;BME280;18281;51.364;9.566;2023-07-02T07:55:08;99260.47;;;15.62;100.00
31681;BME280;18281;51.364;9.566;2023-07-02T07:57:35;99258.97;;;15.69;100.00
31681;BME280;18281;51.364;9.566;2023-07-02T08:00:02;99261.59;;;15.59;100.00
31681;BME280;18281;51.364;9.566;2023-07-02T08:02:29;99269.97;;;15.65;100.00
31681;BME280;18281;51.364;9.566;2023-07-02T08:04:54;99277.03;;;15.64;99.95
31681;BME280;18281;51.364;9.566;2023-07-02T08:07:20;99265.63;;;15.64;99.38
31681;BME280;18281;51.364;9.566;2023-07-02T08:09:45;99278.56;;;15.57;96.33
31681;BME280;18281;51.364;9.566;2023-07-02T08:12:10;99276.06;;;15.55;94.47
31681;BME280;18281;51.364;9.566;2023-07-02T08:14:36;99283.75;;;15.68;93.12
31681;BME280;18281;51.364;9.566;2023-07-02T08:17:01;99283.50;;;15.81;91.71
31681;BME280;18281;51.364;9.566;2023-07-02T08:19:26;99275.56;;;15.91;91.68
31681;BME280;18281;51.364;9.566;2023-07-02T08:21:52;99285.88;;;15.84;91.54
31681;BME280;18281;51.364;9.566;2023-07-02T08:24:17;99284.09;;;15.95;92.92
31681;BME280;18281;51.364;9.566;2023-07-02T08:26:42;99289.13;;;16.17;92.56
31681;BME280;18281;51.364;9.566;2023-07-02T08:29:09;99293.72;;;16.15;92.47
31681;BME280;18281;51.364;9.566;2023-07-02T08:31:35;99289.25;;;16.25;92.16
31681;BME280;18281;51.364;9.566;2023-07-02T08:34:00;99296.78;;;16.20;92.33
31681;BME280;18281;51.364;9.566;2023-07-02T08:36:25;99295.09;;;16.09;92.57
31681;BME280;18281;51.364;9.566;2023-07-02T08:38:51;99291.63;;;16.19;92.09
31681;BME280;18281;51.364;9.566;2023-07-02T08:41:16;99294.69;;;16.34;90.82
31681;BME280;18281;51.364;9.566;2023-07-02T08:43:42;99294.69;;;16.34;90.96
31681;BME280;18281;51.364;9.566;2023-07-02T08:46:08;99296.91;;;16.38;90.04
31681;BME280;18281;51.364;9.566;2023-07-02T08:48:35;99297.06;;;16.56;89.15
31681;BME280;18281;51.364;9.566;2023-07-02T08:51:02;99293.28;;;16.69;88.78
31681;BME280;18281;51.364;9.566;2023-07-02T08:53:28;99293.41;;;16.77;88.84
31681;BME280;18281;51.364;9.566;2023-07-02T08:55:59;99300.38;;;16.68;86.85
31681;BME280;18281;51.364;9.566;2023-07-02T08:58:25;99314.88;;;16.84;86.32
31681;BME280;18281;51.364;9.566;2023-07-02T09:01:11;99307.19;;;16.90;84.77
31681;BME280;18281;51.364;9.566;2023-07-02T09:03:38;99307.31;;;16.99;83.81
31681;BME280;18281;51.364;9.566;2023-07-02T09:06:08;99310.00;;;17.17;83.73
31681;BME280;18281;51.364;9.566;2023-07-02T09:08:34;99310.81;;;17.27;82.31
31681;BME280;18281;51.364;9.566;2023-07-02T09:11:10;99306.34;;;17.27;81.79
31681;BME280;18281;51.364;9.566;2023-07-02T09:13:43;99323.66;;;17.32;81.89
31681;BME280;18281;51.364;9.566;2023-07-02T09:16:24;99317.81;;;17.28;83.43
31681;BME280;18281;51.364;9.566;2023-07-02T09:19:06;99311.94;;;17.24;82.61
31681;BME280;18281;51.364;9.566;2023-07-02T09:21:44;99313.59;;;17.45;81.78
31681;BME280;18281;51.364;9.566;2023-07-02T09:24:21;99328.66;;;17.45;81.95
31681;BME280;18281;51.364;9.566;2023-07-02T09:27:06;99323.59;;;17.51;79.28
31681;BME280;18281;51.364;9.566;2023-07-02T09:29:32;99298.16;;;17.58;78.93
31681;BME280;18281;51.364;9.566;2023-07-02T09:32:00;99310.56;;;17.58;79.37
31681;BME280;18281;51.364;9.566;2023-07-02T09:34:27;99316.66;;;17.68;78.47
31681;BME280;18281;51.364;9.566;2023-07-02T09:36:54;99309.59;;;17.77;78.71
31681;BME280;18281;51.364;9.566;2023-07-02T09:39:25;99308.13;;;17.92;76.85
31681;BME280;18281;51.364;9.566;2023-07-02T09:41:51;99315.78;;;17.96;76.69
31681;BME280;18281;51.364;9.566;2023-07-02T09:44:18;99314.41;;;17.91;77.17
31681;BME280;18281;51.364;9.566;2023-07-02T09:46:58;99323.81;;;18.04;74.99
31681;BME280;18281;51.364;9.566;2023-07-02T09:49:24;99316.16;;;18.01;75.94
31681;BME280;18281;51.364;9.566;2023-07-02T09:51:50;99327.69;;;17.91;75.98
31681;BME280;18281;51.364;9.566;2023-07-02T09:54:16;99324.50;;;17.88;74.29
31681;BME280;18281;51.364;9.566;2023-07-02T09:56:45;99320.03;;;18.06;75.07
31681;BME280;18281;51.364;9.566;2023-07-02T09:59:10;99326.59;;;18.12;73.45
31681;BME280;18281;51.364;9.566;2023-07-02T10:01:36;99323.69;;;18.05;73.77
31681;BME280;18281;51.364;9.566;2023-07-02T10:04:15;99318.16;;;18.35;74.89
31681;BME280;18281;51.364;9.566;2023-07-02T10:06:54;99314.13;;;18.31;73.63
31681;BME280;18281;51.364;9.566;2023-07-02T10:09:21;99328.19;;;18.41;73.90
31681;BME280;18281;51.364;9.566;2023-07-02T10:11:47;99322.59;;;18.26;72.85
31681;BME280;18281;51.364;9.566;2023-07-02T10:14:12;99325.31;;;18.16;71.44
31681;BME280;18281;51.364;9.566;2023-07-02T10:16:53;99325.84;;;18.20;71.60
31681;BME280;18281;51.364;9.566;2023-07-02T10:19:19;99327.13;;;18.16;72.45
31681;BME280;18281;51.364;9.566;2023-07-02T10:21:45;99327.59;;;18.29;73.19
31681;BME280;18281;51.364;9.566;2023-07-02T10:24:11;99328.13;;;18.33;71.46
31681;BME280;18281;51.364;9.566;2023-07-02T10:26:37;99338.22;;;18.29;70.85
31681;BME280;18281;51.364;9.566;2023-07-02T10:29:02;99327.06;;;18.43;70.85
31681;BME280;18281;51.364;9.566;2023-07-02T10:31:28;99331.88;;;18.48;70.14
31681;BME280;18281;51.364;9.566;2023-07-02T10:33:54;99330.69;;;18.60;69.40
31681;BME280;18281;51.364;9.566;2023-07-02T10:36:20;99332.66;;;18.58;69.31
31681;BME280;18281;51.364;9.566;2023-07-02T10:38:47;99336.75;;;18.35;68.39
31681;BME280;18281;51.364;9.566;2023-07-02T10:41:29;99331.38;;;18.45;69.34
31681;BME280;18281;51.364;9.566;2023-07-02T10:44:05;99336.00;;;18.60;69.08
31681;BME280;18281;51.364;9.566;2023-07-02T10:46:30;99341.81;;;18.82;70.23
31681;BME280;18281;51.364;9.566;2023-07-02T10:48:56;99334.16;;;18.79;69.04
31681;BME280;18281;51.364;9.566;2023-07-02T10:51:22;99328.44;;;18.92;69.15
31681;BME280;18281;51.364;9.566;2023-07-02T10:53:59;99343.16;;;18.86;70.13
31681;BME280;18281;51.364;9.566;2023-07-02T10:56:28;99347.69;;;18.68;69.00
31681;BME280;18281;51.364;9.566;2023-07-02T10:58:54;99331.94;;;18.74;68.78
31681;BME280;18281;51.364;9.566;2023-07-02T11:01:31;99338.19;;;18.65;67.88
31681;BME280;18281;51.364;9.566;2023-07-02T11:06:23;99345.25;;;18.92;68.39
31681;BME280;18281;51.364;9.566;2023-07-02T11:08:49;99347.75;;;18.94;69.39
31681;BME280;18281;51.364;9.566;2023-07-02T11:11:14;99360.78;;;18.87;68.82
31681;BME280;18281;51.364;9.566;2023-07-02T11:13:47;99351.25;;;19.03;69.39
31681;BME280;18281;51.364;9.566;2023-07-02T11:18:44;99340.22;;;18.89;68.38
31681;BME280;18281;51.364;9.566;2023-07-02T11:21:10;99347.56;;;18.77;67.49
31681;BME280;18281;51.364;9.566;2023-07-02T11:23:36;99353.91;;;18.76;67.84
31681;BME280;18281;51.364;9.566;2023-07-02T11:26:02;99352.13;;;18.85;67.94
31681;BME280;18281;51.364;9.566;2023-07-02T11:28:29;99357.38;;;18.77;68.04
31681;BME280;18281;51.364;9.566;2023-07-02T11:30:56;99360.06;;;18.95;67.84
31681;BME280;18281;51.364;9.566;2023-07-02T11:35:59;99360.69;;;19.15;68.07
31681;BME280;18281;51.364;9.566;2023-07-02T11:38:25;99357.22;;;18.97;67.64
31681;BME280;18281;51.364;9.566;2023-07-02T11:40:50;99354.81;;;19.12;68.50
31681;BME280;18281;51.364;9.566;2023-07-02T11:43:16;99361.19;;;18.92;67.91
31681;BME280;18281;51.364;9.566;2023-07-02T11:45:41;99356.78;;;18.83;68.03
31681;BME280;18281;51.364;9.566;2023-07-02T11:48:06;99360.41;;;18.82;68.30
31681;BME280;18281;51.364;9.566;2023-07-02T11:50:32;99355.06;;;19.00;67.43
31681;BME280;18281;51.364;9.566;2023-07-02T11:52:57;99360.72;;;18.97;68.50
31681;BME280;18281;51.364;9.566;2023-07-02T11:55:22;99357.84;;;18.90;67.98
31681;BME280;18281;51.364;9.566;2023-07-02T11:57:48;99361.50;;;18.89;68.93
31681;BME280;18281;51.364;9.566;2023-07-02T12:00:15;99362.59;;;18.87;67.72
31681;BME280;18281;51.364;9.566;2023-07-02T12:02:40;99365.53;;;18.75;67.44
31681;BME280;18281;51.364;9.566;2023-07-02T12:05:05;99366.72;;;18.81;67.80
31681;BME280;18281;51.364;9.566;2023-07-02T12:07:31;99356.09;;;18.81;68.49
31681;BME280;18281;51.364;9.566;2023-07-02T12:09:56;99364.97;;;18.72;67.95
31681;BME280;18281;51.364;9.566;2023-07-02T12:12:22;99371.22;;;18.63;67.82
31681;BME280;18281;51.364;9.566;2023-07-02T12:14:47;99378.66;;;18.77;69.50
31681;BME280;18281;51.364;9.566;2023-07-02T12:17:13;99366.50;;;18.74;67.69
31681;BME280;18281;51.364;9.566;2023-07-02T12:19:39;99375.34;;;18.75;67.75
31681;BME280;18281;51.364;9.566;2023-07-02T12:22:05;99369.38;;;18.81;67.56
31681;BME280;18281;51.364;9.566;2023-07-02T12:24:31;99361.84;;;18.95;67.48
31681;BME280;18281;51.364;9.566;2023-07-02T12:26:56;99358.06;;;19.23;68.09
31681;BME280;18281;51.364;9.566;2023-07-02T12:29:21;99354.56;;;18.97;67.25
31681;BME280;18281;51.364;9.566;2023-07-02T12:31:47;99371.50;;;18.96;67.63
31681;BME280;18281;51.364;9.566;2023-07-02T12:34:12;99358.13;;;18.87;67.92
31681;BME280;18281;51.364;9.566;2023-07-02T12:36:37;99367.41;;;18.83;67.48
31681;BME280;18281;51.364;9.566;2023-07-02T12:39:03;99366.88;;;18.80;67.60
31681;BME280;18281;51.364;9.566;2023-07-02T12:41:28;99365.19;;;18.79;67.12
31681;BME280;18281;51.364;9.566;2023-07-02T12:43:54;99365.19;;;18.79;67.04
31681;BME280;18281;51.364;9.566;2023-07-02T12:46:19;99366.19;;;18.96;67.31
31681;BME280;18281;51.364;9.566;2023-07-02T12:48:45;99371.81;;;19.19;67.30
31681;BME280;18281;51.364;9.566;2023-07-02T12:51:10;99379.50;;;19.22;66.81
31681;BME280;18281;51.364;9.566;2023-07-02T12:53:36;99370.34;;;19.24;67.80
31681;BME280;18281;51.364;9.566;2023-07-02T12:56:01;99381.84;;;18.99;66.55
31681;BME280;18281;51.364;9.566;2023-07-02T12:58:27;99374.31;;;19.20;66.82